sensor_id;sensor_type;location;lat;lon;timestamp;P1;durP1;ratioP1;P2;durP2;ratioP2
35993;SDS011;22066;54.274;18.578;2023-03-16T00:02:06;66.47;;;14.67;;
35993;SDS011;22066;54.274;18.578;2023-03-16T00:04:32;58.23;;;13.00;;
35993;SDS011;22066;54.274;18.578;2023-03-16T00:07:10;46.90;;;13.33;;
35993;SDS011;22066;54.274;18.578;2023-03-16T00:09:37;50.27;;;13.57;;
35993;SDS011;22066;54.274;18.578;2023-03-16T00:12:05;39.27;;;9.80;;
35993;SDS011;22066;54.274;18.578;2023-03-16T00:14:31;23.23;;;6.87;;
35993;SDS011;22066;54.274;18.578;2023-03-16T00:16:59;25.75;;;7.95;;
35993;SDS011;22066;54.274;18.578;2023-03-16T00:19:26;24.50;;;7.30;;
35993;SDS011;22066;54.274;18.578;2023-03-16T00:21:52;28.67;;;6.10;;
35993;SDS011;22066;54.274;18.578;2023-03-16T00:24:18;23.10;;;5.73;;
35993;SDS011;22066;54.274;18.578;2023-03-16T00:26:45;21.07;;;5.80;;
35993;SDS011;22066;54.274;18.578;2023-03-16T00:29:11;13.37;;;5.27;;
35993;SDS011;22066;54.274;18.578;2023-03-16T00:31:38;42.00;;;9.57;;
35993;SDS011;22066;54.274;18.578;2023-03-16T00:34:07;42.30;;;9.73;;
35993;SDS011;22066;54.274;18.578;2023-03-16T00:36:33;32.57;;;10.17;;
35993;SDS011;22066;54.274;18.578;2023-03-16T00:41:29;32.03;;;7.63;;
35993;SDS011;22066;54.274;18.578;2023-03-16T00:43:55;29.63;;;9.47;;
35993;SDS011;22066;54.274;18.578;2023-03-16T00:46:21;29.00;;;8.20;;
35993;SDS011;22066;54.274;18.578;2023-03-16T00:48:50;23.13;;;7.83;;
35993;SDS011;22066;54.274;18.578;2023-03-16T00:51:16;21.73;;;7.20;;
35993;SDS011;22066;54.274;18.578;2023-03-16T00:53:43;23.77;;;7.10;;
35993;SDS011;22066;54.274;18.578;2023-03-16T00:56:10;25.37;;;8.10;;
35993;SDS011;22066;54.274;18.578;2023-03-16T00:58:38;40.22;;;7.95;;
35993;SDS011;22066;54.274;18.578;2023-03-16T01:01:17;28.83;;;7.50;;
35993;SDS011;22066;54.274;18.578;2023-03-16T01:03:43;21.80;;;6.57;;
35993;SDS011;22066;54.274;18.578;2023-03-16T01:06:10;21.93;;;7.00;;
35993;SDS011;22066;54.274;18.578;2023-03-16T01:08:37;17.45;;;6.20;;
35993;SDS011;22066;54.274;18.578;2023-03-16T01:11:13;20.20;;;5.87;;
35993;SDS011;22066;54.274;18.578;2023-03-16T01:13:43;18.33;;;6.93;;
35993;SDS011;22066;54.274;18.578;2023-03-16T01:16:11;17.63;;;6.05;;
35993;SDS011;22066;54.274;18.578;2023-03-16T01:18:37;20.80;;;6.20;;
35993;SDS011;22066;54.274;18.578;2023-03-16T01:21:04;27.43;;;6.53;;
35993;SDS011;22066;54.274;18.578;2023-03-16T01:23:30;27.93;;;7.17;;
35993;SDS011;22066;54.274;18.578;2023-03-16T01:25:57;25.20;;;6.50;;
35993;SDS011;22066;54.274;18.578;2023-03-16T01:28:24;22.17;;;6.63;;
35993;SDS011;22066;54.274;18.578;2023-03-16T01:30:51;24.73;;;8.47;;
35993;SDS011;22066;54.274;18.578;2023-03-16T01:33:22;24.50;;;7.00;;
35993;SDS011;22066;54.274;18.578;2023-03-16T01:35:54;31.57;;;8.07;;
35993;SDS011;22066;54.274;18.578;2023-03-16T01:38:21;22.77;;;8.43;;
35993;SDS011;22066;54.274;18.578;2023-03-16T01:40:48;25.57;;;7.50;;
35993;SDS011;22066;54.274;18.578;2023-03-16T01:43:16;20.85;;;5.75;;
35993;SDS011;22066;54.274;18.578;2023-03-16T01:48:27;21.07;;;6.37;;
35993;SDS011;22066;54.274;18.578;2023-03-16T01:50:54;19.37;;;7.63;;
35993;SDS011;22066;54.274;18.578;2023-03-16T01:53:21;20.70;;;6.23;;
35993;SDS011;22066;54.274;18.578;2023-03-16T01:55:48;19.25;;;4.88;;
35993;SDS011;22066;54.274;18.578;2023-03-16T01:58:15;14.07;;;4.40;;
35993;SDS011;22066;54.274;18.578;2023-03-16T02:00:42;13.50;;;4.20;;
35993;SDS011;22066;54.274;18.578;2023-03-16T02:03:10;11.68;;;3.78;;
35993;SDS011;22066;54.274;18.578;2023-03-16T02:05:39;13.13;;;4.22;;
35993;SDS011;22066;54.274;18.578;2023-03-16T02:08:07;9.37;;;4.60;;
35993;SDS011;22066;54.274;18.578;2023-03-16T02:10:34;11.17;;;4.37;;
35993;SDS011;22066;54.274;18.578;2023-03-16T02:13:00;14.97;;;4.70;;
35993;SDS011;22066;54.274;18.578;2023-03-16T02:15:27;14.50;;;4.73;;
35993;SDS011;22066;54.274;18.578;2023-03-16T02:17:53;10.57;;;3.83;;
35993;SDS011;22066;54.274;18.578;2023-03-16T02:22:54;11.37;;;3.87;;
35993;SDS011;22066;54.274;18.578;2023-03-16T02:25:25;10.57;;;3.73;;
35993;SDS011;22066;54.274;18.578;2023-03-16T02:30:39;11.57;;;3.77;;
35993;SDS011;22066;54.274;18.578;2023-03-16T02:33:05;11.87;;;3.03;;
35993;SDS011;22066;54.274;18.578;2023-03-16T02:35:31;14.97;;;5.10;;
35993;SDS011;22066;54.274;18.578;2023-03-16T02:37:58;12.00;;;3.83;;
35993;SDS011;22066;54.274;18.578;2023-03-16T02:40:25;19.23;;;5.33;;
35993;SDS011;22066;54.274;18.578;2023-03-16T02:43:02;21.30;;;4.83;;
35993;SDS011;22066;54.274;18.578;2023-03-16T02:45:36;14.23;;;4.67;;
35993;SDS011;22066;54.274;18.578;2023-03-16T02:48:04;28.37;;;7.87;;
35993;SDS011;22066;54.274;18.578;2023-03-16T02:50:32;21.47;;;5.33;;
35993;SDS011;22066;54.274;18.578;2023-03-16T02:52:58;28.93;;;6.53;;
35993;SDS011;22066;54.274;18.578;2023-03-16T02:55:24;28.13;;;6.73;;
35993;SDS011;22066;54.274;18.578;2023-03-16T02:57:51;27.83;;;6.87;;
35993;SDS011;22066;54.274;18.578;2023-03-16T03:00:17;29.17;;;7.60;;
35993;SDS011;22066;54.274;18.578;2023-03-16T03:02:45;24.60;;;7.17;;
35993;SDS011;22066;54.274;18.578;2023-03-16T03:05:12;28.30;;;6.77;;
35993;SDS011;22066;54.274;18.578;2023-03-16T03:07:38;19.20;;;6.90;;
35993;SDS011;22066;54.274;18.578;2023-03-16T03:10:05;23.70;;;7.47;;
35993;SDS011;22066;54.274;18.578;2023-03-16T03:12:31;21.50;;;7.03;;
35993;SDS011;22066;54.274;18.578;2023-03-16T03:14:58;23.43;;;5.97;;
35993;SDS011;22066;54.274;18.578;2023-03-16T03:17:24;35.83;;;8.00;;
35993;SDS011;22066;54.274;18.578;2023-03-16T03:19:59;26.10;;;8.13;;
35993;SDS011;22066;54.274;18.578;2023-03-16T03:22:38;22.27;;;7.60;;
35993;SDS011;22066;54.274;18.578;2023-03-16T03:25:04;26.17;;;8.83;;
35993;SDS011;22066;54.274;18.578;2023-03-16T03:27:30;44.30;;;9.50;;
35993;SDS011;22066;54.274;18.578;2023-03-16T03:29:57;22.20;;;6.47;;
35993;SDS011;22066;54.274;18.578;2023-03-16T03:32:23;20.40;;;5.40;;
35993;SDS011;22066;54.274;18.578;2023-03-16T03:34:49;23.50;;;6.47;;
35993;SDS011;22066;54.274;18.578;2023-03-16T03:37:17;28.73;;;6.68;;
35993;SDS011;22066;54.274;18.578;2023-03-16T03:39:43;16.47;;;5.70;;
35993;SDS011;22066;54.274;18.578;2023-03-16T03:42:10;20.57;;;6.17;;
35993;SDS011;22066;54.274;18.578;2023-03-16T03:44:36;15.63;;;4.70;;
35993;SDS011;22066;54.274;18.578;2023-03-16T03:47:02;10.77;;;4.43;;
35993;SDS011;22066;54.274;18.578;2023-03-16T03:49:29;10.57;;;4.53;;
35993;SDS011;22066;54.274;18.578;2023-03-16T03:51:55;10.57;;;4.60;;
35993;SDS011;22066;54.274;18.578;2023-03-16T03:54:23;13.98;;;4.30;;
35993;SDS011;22066;54.274;18.578;2023-03-16T03:56:50;9.53;;;4.07;;
35993;SDS011;22066;54.274;18.578;2023-03-16T03:59:16;13.07;;;4.20;;
35993;SDS011;22066;54.274;18.578;2023-03-16T04:01:42;14.97;;;4.17;;
35993;SDS011;22066;54.274;18.578;2023-03-16T04:04:08;15.30;;;4.70;;
35993;SDS011;22066;54.274;18.578;2023-03-16T04:06:34;12.23;;;4.97;;
35993;SDS011;22066;54.274;18.578;2023-03-16T04:09:00;12.97;;;4.93;;
35993;SDS011;22066;54.274;18.578;2023-03-16T04:11:26;15.43;;;3.87;;
35993;SDS011;22066;54.274;18.578;2023-03-16T04:13:53;23.30;;;5.23;;
35993;SDS011;22066;54.274;18.578;2023-03-16T04:16:19;11.30;;;5.00;;
35993;SDS011;22066;54.274;18.578;2023-03-16T04:18:46;16.00;;;4.53;;
35993;SDS011;22066;54.274;18.578;2023-03-16T04:21:15;21.27;;;4.90;;
35993;SDS011;22066;54.274;18.578;2023-03-16T04:23:41;16.10;;;4.90;;
35993;SDS011;22066;54.274;18.578;2023-03-16T04:26:08;23.00;;;4.90;;
35993;SDS011;22066;54.274;18.578;2023-03-16T04:28:34;15.00;;;4.37;;
35993;SDS011;22066;54.274;18.578;2023-03-16T04:31:01;17.43;;;5.07;;
35993;SDS011;22066;54.274;18.578;2023-03-16T04:33:27;21.00;;;4.77;;
35993;SDS011;22066;54.274;18.578;2023-03-16T04:35:53;12.97;;;5.10;;
35993;SDS011;22066;54.274;18.578;2023-03-16T04:38:19;18.70;;;4.77;;
35993;SDS011;22066;54.274;18.578;2023-03-16T04:40:46;13.33;;;5.43;;
35993;SDS011;22066;54.274;18.578;2023-03-16T04:43:12;13.17;;;6.17;;
35993;SDS011;22066;54.274;18.578;2023-03-16T04:45:38;18.40;;;6.73;;
35993;SDS011;22066;54.274;18.578;2023-03-16T04:48:05;16.60;;;5.30;;
35993;SDS011;22066;54.274;18.578;2023-03-16T04:50:31;23.90;;;5.33;;
35993;SDS011;22066;54.274;18.578;2023-03-16T04:52:57;15.93;;;5.40;;
35993;SDS011;22066;54.274;18.578;2023-03-16T04:55:23;10.73;;;3.50;;
35993;SDS011;22066;54.274;18.578;2023-03-16T04:57:49;17.57;;;5.47;;
35993;SDS011;22066;54.274;18.578;2023-03-16T05:00:17;14.87;;;5.00;;
35993;SDS011;22066;54.274;18.578;2023-03-16T05:02:44;19.85;;;6.30;;
35993;SDS011;22066;54.274;18.578;2023-03-16T05:05:10;17.60;;;7.10;;
35993;SDS011;22066;54.274;18.578;2023-03-16T05:07:36;27.90;;;8.33;;
35993;SDS011;22066;54.274;18.578;2023-03-16T05:10:03;34.27;;;7.63;;
35993;SDS011;22066;54.274;18.578;2023-03-16T05:12:29;23.23;;;7.07;;
35993;SDS011;22066;54.274;18.578;2023-03-16T05:14:55;28.27;;;8.13;;
35993;SDS011;22066;54.274;18.578;2023-03-16T05:17:21;41.67;;;9.73;;
35993;SDS011;22066;54.274;18.578;2023-03-16T05:19:47;34.47;;;9.30;;
35993;SDS011;22066;54.274;18.578;2023-03-16T05:22:14;41.03;;;10.07;;
35993;SDS011;22066;54.274;18.578;2023-03-16T05:24:40;35.87;;;9.63;;
35993;SDS011;22066;54.274;18.578;2023-03-16T05:27:06;30.03;;;8.57;;
35993;SDS011;22066;54.274;18.578;2023-03-16T05:29:32;34.80;;;7.93;;
35993;SDS011;22066;54.274;18.578;2023-03-16T05:31:58;27.43;;;8.97;;
35993;SDS011;22066;54.274;18.578;2023-03-16T05:34:25;26.07;;;7.50;;
35993;SDS011;22066;54.274;18.578;2023-03-16T05:36:51;19.07;;;6.10;;
35993;SDS011;22066;54.274;18.578;2023-03-16T05:39:17;19.53;;;5.50;;
35993;SDS011;22066;54.274;18.578;2023-03-16T05:41:43;15.20;;;5.23;;
35993;SDS011;22066;54.274;18.578;2023-03-16T05:44:09;19.30;;;5.90;;
35993;SDS011;22066;54.274;18.578;2023-03-16T05:46:35;13.83;;;6.00;;
35993;SDS011;22066;54.274;18.578;2023-03-16T05:49:02;19.10;;;6.30;;
35993;SDS011;22066;54.274;18.578;2023-03-16T05:51:28;16.77;;;5.73;;
35993;SDS011;22066;54.274;18.578;2023-03-16T05:53:54;12.73;;;5.77;;
35993;SDS011;22066;54.274;18.578;2023-03-16T05:56:22;15.17;;;6.20;;
35993;SDS011;22066;54.274;18.578;2023-03-16T05:58:49;10.52;;;4.28;;
35993;SDS011;22066;54.274;18.578;2023-03-16T06:01:16;14.27;;;6.37;;
35993;SDS011;22066;54.274;18.578;2023-03-16T06:03:42;16.57;;;5.73;;
35993;SDS011;22066;54.274;18.578;2023-03-16T06:06:08;24.57;;;6.13;;
35993;SDS011;22066;54.274;18.578;2023-03-16T06:08:35;12.77;;;5.20;;
35993;SDS011;22066;54.274;18.578;2023-03-16T06:11:01;28.40;;;6.97;;
35993;SDS011;22066;54.274;18.578;2023-03-16T06:13:28;33.27;;;7.07;;
35993;SDS011;22066;54.274;18.578;2023-03-16T06:15:54;19.50;;;6.33;;
35993;SDS011;22066;54.274;18.578;2023-03-16T06:18:20;16.67;;;5.17;;
35993;SDS011;22066;54.274;18.578;2023-03-16T06:20:47;16.17;;;6.87;;
35993;SDS011;22066;54.274;18.578;2023-03-16T06:23:13;21.03;;;7.17;;
35993;SDS011;22066;54.274;18.578;2023-03-16T06:25:39;21.63;;;7.13;;
35993;SDS011;22066;54.274;18.578;2023-03-16T06:28:05;25.27;;;9.80;;
35993;SDS011;22066;54.274;18.578;2023-03-16T06:30:32;26.80;;;8.03;;
35993;SDS011;22066;54.274;18.578;2023-03-16T06:32:58;24.93;;;9.53;;
35993;SDS011;22066;54.274;18.578;2023-03-16T06:35:24;20.60;;;8.53;;
35993;SDS011;22066;54.274;18.578;2023-03-16T06:37:50;34.37;;;11.87;;
35993;SDS011;22066;54.274;18.578;2023-03-16T06:40:16;25.83;;;8.60;;
35993;SDS011;22066;54.274;18.578;2023-03-16T06:42:42;40.83;;;10.00;;
35993;SDS011;22066;54.274;18.578;2023-03-16T06:45:09;34.97;;;11.57;;
35993;SDS011;22066;54.274;18.578;2023-03-16T06:47:35;43.53;;;11.10;;
35993;SDS011;22066;54.274;18.578;2023-03-16T06:50:02;41.50;;;11.60;;
35993;SDS011;22066;54.274;18.578;2023-03-16T06:52:28;35.87;;;11.50;;
35993;SDS011;22066;54.274;18.578;2023-03-16T06:54:55;24.50;;;7.87;;
35993;SDS011;22066;54.274;18.578;2023-03-16T06:57:22;12.43;;;6.03;;
35993;SDS011;22066;54.274;18.578;2023-03-16T06:59:48;20.10;;;6.13;;
35993;SDS011;22066;54.274;18.578;2023-03-16T07:02:15;11.63;;;5.10;;
35993;SDS011;22066;54.274;18.578;2023-03-16T07:04:41;14.73;;;4.53;;
35993;SDS011;22066;54.274;18.578;2023-03-16T07:07:08;18.40;;;4.63;;
35993;SDS011;22066;54.274;18.578;2023-03-16T07:09:35;10.27;;;3.70;;
35993;SDS011;22066;54.274;18.578;2023-03-16T07:12:01;10.80;;;3.63;;
35993;SDS011;22066;54.274;18.578;2023-03-16T07:14:28;10.77;;;4.07;;
35993;SDS011;22066;54.274;18.578;2023-03-16T07:16:54;9.07;;;3.40;;
35993;SDS011;22066;54.274;18.578;2023-03-16T07:19:20;13.73;;;5.37;;
35993;SDS011;22066;54.274;18.578;2023-03-16T07:21:47;12.37;;;4.57;;
35993;SDS011;22066;54.274;18.578;2023-03-16T07:24:13;15.30;;;4.90;;
35993;SDS011;22066;54.274;18.578;2023-03-16T07:26:39;13.30;;;3.93;;
35993;SDS011;22066;54.274;18.578;2023-03-16T07:29:06;13.63;;;3.93;;
35993;SDS011;22066;54.274;18.578;2023-03-16T07:31:34;12.50;;;3.73;;
35993;SDS011;22066;54.274;18.578;2023-03-16T07:34:00;14.43;;;3.97;;
35993;SDS011;22066;54.274;18.578;2023-03-16T07:36:26;12.40;;;4.27;;
35993;SDS011;22066;54.274;18.578;2023-03-16T07:38:52;7.90;;;4.10;;
35993;SDS011;22066;54.274;18.578;2023-03-16T07:41:19;8.43;;;3.63;;
35993;SDS011;22066;54.274;18.578;2023-03-16T07:43:45;8.00;;;3.40;;
35993;SDS011;22066;54.274;18.578;2023-03-16T07:46:12;9.43;;;3.53;;
35993;SDS011;22066;54.274;18.578;2023-03-16T07:48:42;9.37;;;3.70;;
35993;SDS011;22066;54.274;18.578;2023-03-16T07:51:09;6.47;;;3.17;;
35993;SDS011;22066;54.274;18.578;2023-03-16T07:53:35;6.90;;;3.03;;
35993;SDS011;22066;54.274;18.578;2023-03-16T07:56:01;12.70;;;4.43;;
35993;SDS011;22066;54.274;18.578;2023-03-16T07:58:27;7.73;;;3.23;;
35993;SDS011;22066;54.274;18.578;2023-03-16T08:00:57;9.53;;;3.67;;
35993;SDS011;22066;54.274;18.578;2023-03-16T08:03:23;9.30;;;2.90;;
35993;SDS011;22066;54.274;18.578;2023-03-16T08:05:49;12.87;;;4.87;;
35993;SDS011;22066;54.274;18.578;2023-03-16T08:08:15;12.53;;;3.40;;
35993;SDS011;22066;54.274;18.578;2023-03-16T08:10:42;14.13;;;4.50;;
35993;SDS011;22066;54.274;18.578;2023-03-16T08:13:08;14.30;;;3.20;;
35993;SDS011;22066;54.274;18.578;2023-03-16T08:15:34;7.13;;;3.40;;
35993;SDS011;22066;54.274;18.578;2023-03-16T08:18:00;8.10;;;3.13;;
35993;SDS011;22066;54.274;18.578;2023-03-16T08:20:27;12.83;;;3.47;;
35993;SDS011;22066;54.274;18.578;2023-03-16T08:22:53;12.50;;;3.77;;
35993;SDS011;22066;54.274;18.578;2023-03-16T08:25:19;10.90;;;4.60;;
35993;SDS011;22066;54.274;18.578;2023-03-16T08:27:46;11.60;;;3.93;;
35993;SDS011;22066;54.274;18.578;2023-03-16T08:30:13;10.40;;;4.30;;
35993;SDS011;22066;54.274;18.578;2023-03-16T08:32:40;9.37;;;3.80;;
35993;SDS011;22066;54.274;18.578;2023-03-16T08:35:08;10.65;;;4.20;;
35993;SDS011;22066;54.274;18.578;2023-03-16T08:37:37;10.93;;;3.50;;
35993;SDS011;22066;54.274;18.578;2023-03-16T08:40:03;8.87;;;4.00;;
35993;SDS011;22066;54.274;18.578;2023-03-16T08:42:38;12.47;;;4.60;;
35993;SDS011;22066;54.274;18.578;2023-03-16T08:45:05;9.20;;;3.77;;
35993;SDS011;22066;54.274;18.578;2023-03-16T08:47:36;11.33;;;3.30;;
35993;SDS011;22066;54.274;18.578;2023-03-16T08:50:04;7.40;;;2.77;;
35993;SDS011;22066;54.274;18.578;2023-03-16T08:52:31;12.07;;;3.97;;
35993;SDS011;22066;54.274;18.578;2023-03-16T08:54:57;11.30;;;4.03;;
35993;SDS011;22066;54.274;18.578;2023-03-16T08:57:24;12.33;;;3.33;;
35993;SDS011;22066;54.274;18.578;2023-03-16T08:59:50;14.80;;;3.67;;
35993;SDS011;22066;54.274;18.578;2023-03-16T09:02:16;14.97;;;4.07;;
35993;SDS011;22066;54.274;18.578;2023-03-16T09:04:43;7.03;;;3.20;;
35993;SDS011;22066;54.274;18.578;2023-03-16T09:07:09;10.27;;;3.43;;
35993;SDS011;22066;54.274;18.578;2023-03-16T09:09:36;10.63;;;3.13;;
35993;SDS011;22066;54.274;18.578;2023-03-16T09:12:03;10.27;;;2.90;;
35993;SDS011;22066;54.274;18.578;2023-03-16T09:14:30;9.93;;;3.10;;
35993;SDS011;22066;54.274;18.578;2023-03-16T09:16:56;8.30;;;3.17;;
35993;SDS011;22066;54.274;18.578;2023-03-16T09:19:22;6.68;;;3.10;;
35993;SDS011;22066;54.274;18.578;2023-03-16T09:21:49;8.37;;;2.90;;
35993;SDS011;22066;54.274;18.578;2023-03-16T09:24:15;6.93;;;3.27;;
35993;SDS011;22066;54.274;18.578;2023-03-16T09:26:41;6.73;;;3.20;;
35993;SDS011;22066;54.274;18.578;2023-03-16T09:29:08;8.38;;;3.70;;
35993;SDS011;22066;54.274;18.578;2023-03-16T09:31:34;12.50;;;3.33;;
35993;SDS011;22066;54.274;18.578;2023-03-16T09:34:01;10.25;;;3.30;;
35993;SDS011;22066;54.274;18.578;2023-03-16T09:36:28;8.03;;;2.00;;
35993;SDS011;22066;54.274;18.578;2023-03-16T09:38:55;8.38;;;2.95;;
35993;SDS011;22066;54.274;18.578;2023-03-16T09:46:15;8.63;;;2.85;;
35993;SDS011;22066;54.274;18.578;2023-03-16T09:48:44;5.15;;;2.90;;
35993;SDS011;22066;54.274;18.578;2023-03-16T09:51:14;5.40;;;2.60;;
35993;SDS011;22066;54.274;18.578;2023-03-16T09:53:42;5.35;;;2.60;;
35993;SDS011;22066;54.274;18.578;2023-03-16T09:58:38;5.57;;;2.42;;
35993;SDS011;22066;54.274;18.578;2023-03-16T10:01:10;6.68;;;2.10;;
35993;SDS011;22066;54.274;18.578;2023-03-16T10:03:57;5.50;;;2.05;;
35993;SDS011;22066;54.274;18.578;2023-03-16T10:06:26;7.70;;;2.20;;
35993;SDS011;22066;54.274;18.578;2023-03-16T10:13:50;5.95;;;2.50;;
35993;SDS011;22066;54.274;18.578;2023-03-16T10:16:20;7.55;;;2.83;;
35993;SDS011;22066;54.274;18.578;2023-03-16T10:18:52;4.63;;;2.15;;
35993;SDS011;22066;54.274;18.578;2023-03-16T10:21:22;7.97;;;1.73;;
35993;SDS011;22066;54.274;18.578;2023-03-16T10:23:48;6.80;;;2.33;;
35993;SDS011;22066;54.274;18.578;2023-03-16T10:26:24;6.40;;;2.40;;
35993;SDS011;22066;54.274;18.578;2023-03-16T10:28:53;6.72;;;2.35;;
35993;SDS011;22066;54.274;18.578;2023-03-16T10:31:20;6.93;;;2.40;;
35993;SDS011;22066;54.274;18.578;2023-03-16T10:33:48;5.83;;;2.60;;
35993;SDS011;22066;54.274;18.578;2023-03-16T10:36:28;6.40;;;2.05;;
35993;SDS011;22066;54.274;18.578;2023-03-16T10:38:56;4.50;;;2.10;;
35993;SDS011;22066;54.274;18.578;2023-03-16T10:41:30;4.78;;;1.80;;
35993;SDS011;22066;54.274;18.578;2023-03-16T10:43:58;7.85;;;2.72;;
35993;SDS011;22066;54.274;18.578;2023-03-16T10:46:34;11.82;;;3.30;;
35993;SDS011;22066;54.274;18.578;2023-03-16T10:49:01;6.60;;;2.10;;
35993;SDS011;22066;54.274;18.578;2023-03-16T10:51:31;4.90;;;2.45;;
35993;SDS011;22066;54.274;18.578;2023-03-16T10:56:54;7.85;;;2.40;;
35993;SDS011;22066;54.274;18.578;2023-03-16T11:01:47;5.43;;;1.98;;
35993;SDS011;22066;54.274;18.578;2023-03-16T11:04:14;5.72;;;2.50;;
35993;SDS011;22066;54.274;18.578;2023-03-16T11:06:55;5.75;;;2.25;;
35993;SDS011;22066;54.274;18.578;2023-03-16T11:09:31;7.28;;;2.15;;
35993;SDS011;22066;54.274;18.578;2023-03-16T11:11:57;5.57;;;1.98;;
35993;SDS011;22066;54.274;18.578;2023-03-16T11:14:25;7.10;;;2.33;;
35993;SDS011;22066;54.274;18.578;2023-03-16T11:19:31;4.72;;;2.00;;
35993;SDS011;22066;54.274;18.578;2023-03-16T11:22:08;4.90;;;2.40;;
35993;SDS011;22066;54.274;18.578;2023-03-16T11:27:20;5.05;;;2.20;;
35993;SDS011;22066;54.274;18.578;2023-03-16T11:32:21;6.03;;;2.40;;
35993;SDS011;22066;54.274;18.578;2023-03-16T11:34:49;7.78;;;2.25;;
35993;SDS011;22066;54.274;18.578;2023-03-16T11:42:28;6.32;;;2.20;;
35993;SDS011;22066;54.274;18.578;2023-03-16T11:59:58;5.78;;;1.83;;
35993;SDS011;22066;54.274;18.578;2023-03-16T12:02:36;7.18;;;2.25;;
35993;SDS011;22066;54.274;18.578;2023-03-16T12:10:19;6.95;;;2.50;;
35993;SDS011;22066;54.274;18.578;2023-03-16T12:13:00;7.72;;;2.25;;
35993;SDS011;22066;54.274;18.578;2023-03-16T12:15:42;7.63;;;3.25;;
35993;SDS011;22066;54.274;18.578;2023-03-16T12:18:13;12.52;;;4.40;;
35993;SDS011;22066;54.274;18.578;2023-03-16T12:20:57;5.90;;;1.75;;
35993;SDS011;22066;54.274;18.578;2023-03-16T12:25:54;5.10;;;2.03;;
35993;SDS011;22066;54.274;18.578;2023-03-16T12:28:22;12.20;;;4.10;;
35993;SDS011;22066;54.274;18.578;2023-03-16T12:30:52;8.43;;;2.20;;
35993;SDS011;22066;54.274;18.578;2023-03-16T12:33:28;4.75;;;1.80;;
35993;SDS011;22066;54.274;18.578;2023-03-16T12:38:33;3.03;;;1.30;;
35993;SDS011;22066;54.274;18.578;2023-03-16T12:46:27;3.10;;;0.80;;
35993;SDS011;22066;54.274;18.578;2023-03-16T12:48:57;2.80;;;0.75;;
35993;SDS011;22066;54.274;18.578;2023-03-16T12:51:38;1.92;;;0.75;;
35993;SDS011;22066;54.274;18.578;2023-03-16T12:54:05;2.90;;;1.02;;
35993;SDS011;22066;54.274;18.578;2023-03-16T12:56:45;4.47;;;1.48;;
35993;SDS011;22066;54.274;18.578;2023-03-16T12:59:18;5.43;;;1.10;;
35993;SDS011;22066;54.274;18.578;2023-03-16T13:01:47;1.88;;;1.10;;
35993;SDS011;22066;54.274;18.578;2023-03-16T13:04:17;2.85;;;1.13;;
35993;SDS011;22066;54.274;18.578;2023-03-16T13:06:46;4.82;;;1.98;;
35993;SDS011;22066;54.274;18.578;2023-03-16T13:09:17;6.50;;;2.00;;
35993;SDS011;22066;54.274;18.578;2023-03-16T13:11:47;4.22;;;1.60;;
35993;SDS011;22066;54.274;18.578;2023-03-16T13:17:06;6.25;;;2.28;;
35993;SDS011;22066;54.274;18.578;2023-03-16T13:25:13;6.18;;;1.65;;
35993;SDS011;22066;54.274;18.578;2023-03-16T13:27:41;4.45;;;1.65;;
35993;SDS011;22066;54.274;18.578;2023-03-16T13:30:15;8.43;;;1.70;;
35993;SDS011;22066;54.274;18.578;2023-03-16T13:32:42;18.40;;;4.20;;
35993;SDS011;22066;54.274;18.578;2023-03-16T13:35:12;23.08;;;5.57;;
35993;SDS011;22066;54.274;18.578;2023-03-16T13:37:39;17.15;;;4.28;;
35993;SDS011;22066;54.274;18.578;2023-03-16T13:40:16;31.27;;;7.10;;
35993;SDS011;22066;54.274;18.578;2023-03-16T13:42:45;10.25;;;3.10;;
35993;SDS011;22066;54.274;18.578;2023-03-16T13:47:41;24.13;;;4.38;;
35993;SDS011;22066;54.274;18.578;2023-03-16T13:50:09;19.60;;;6.00;;
35993;SDS011;22066;54.274;18.578;2023-03-16T13:52:36;21.48;;;5.88;;
35993;SDS011;22066;54.274;18.578;2023-03-16T13:55:09;24.30;;;6.53;;
35993;SDS011;22066;54.274;18.578;2023-03-16T13:57:36;15.68;;;4.20;;
35993;SDS011;22066;54.274;18.578;2023-03-16T14:02:40;4.40;;;2.10;;
35993;SDS011;22066;54.274;18.578;2023-03-16T14:05:08;6.75;;;2.28;;
35993;SDS011;22066;54.274;18.578;2023-03-16T14:07:36;6.90;;;2.58;;
35993;SDS011;22066;54.274;18.578;2023-03-16T14:10:03;7.38;;;2.90;;
35993;SDS011;22066;54.274;18.578;2023-03-16T14:12:30;6.38;;;3.08;;
35993;SDS011;22066;54.274;18.578;2023-03-16T14:14:56;7.80;;;2.30;;
35993;SDS011;22066;54.274;18.578;2023-03-16T14:17:22;5.70;;;2.00;;
35993;SDS011;22066;54.274;18.578;2023-03-16T14:19:59;9.48;;;2.50;;
35993;SDS011;22066;54.274;18.578;2023-03-16T14:22:36;9.30;;;3.05;;
35993;SDS011;22066;54.274;18.578;2023-03-16T14:25:03;9.68;;;3.10;;
35993;SDS011;22066;54.274;18.578;2023-03-16T14:30:18;8.77;;;2.55;;
35993;SDS011;22066;54.274;18.578;2023-03-16T14:35:20;6.85;;;2.30;;
35993;SDS011;22066;54.274;18.578;2023-03-16T14:37:47;5.00;;;2.30;;
35993;SDS011;22066;54.274;18.578;2023-03-16T14:42:48;8.60;;;3.30;;
35993;SDS011;22066;54.274;18.578;2023-03-16T14:45:14;7.13;;;3.20;;
35993;SDS011;22066;54.274;18.578;2023-03-16T14:47:42;10.73;;;2.30;;
35993;SDS011;22066;54.274;18.578;2023-03-16T14:50:11;16.50;;;2.90;;
35993;SDS011;22066;54.274;18.578;2023-03-16T14:52:38;10.33;;;2.97;;
35993;SDS011;22066;54.274;18.578;2023-03-16T14:55:09;12.77;;;3.17;;
35993;SDS011;22066;54.274;18.578;2023-03-16T14:57:36;6.37;;;2.40;;
35993;SDS011;22066;54.274;18.578;2023-03-16T15:00:02;9.70;;;3.37;;
35993;SDS011;22066;54.274;18.578;2023-03-16T15:02:29;7.83;;;2.73;;
35993;SDS011;22066;54.274;18.578;2023-03-16T15:04:56;38.93;;;7.57;;
35993;SDS011;22066;54.274;18.578;2023-03-16T15:07:42;16.20;;;5.90;;
35993;SDS011;22066;54.274;18.578;2023-03-16T15:12:41;16.43;;;4.80;;
35993;SDS011;22066;54.274;18.578;2023-03-16T15:15:15;9.20;;;3.03;;
35993;SDS011;22066;54.274;18.578;2023-03-16T15:17:42;5.15;;;2.20;;
35993;SDS011;22066;54.274;18.578;2023-03-16T15:20:13;6.40;;;2.97;;
35993;SDS011;22066;54.274;18.578;2023-03-16T15:22:39;6.73;;;2.70;;
35993;SDS011;22066;54.274;18.578;2023-03-16T15:27:44;9.90;;;3.75;;
35993;SDS011;22066;54.274;18.578;2023-03-16T15:30:29;12.77;;;3.87;;
35993;SDS011;22066;54.274;18.578;2023-03-16T15:32:55;8.70;;;3.33;;
35993;SDS011;22066;54.274;18.578;2023-03-16T15:35:22;13.93;;;3.70;;
35993;SDS011;22066;54.274;18.578;2023-03-16T15:37:48;8.63;;;2.97;;
35993;SDS011;22066;54.274;18.578;2023-03-16T15:40:15;9.90;;;2.57;;
35993;SDS011;22066;54.274;18.578;2023-03-16T15:42:41;7.70;;;2.90;;
35993;SDS011;22066;54.274;18.578;2023-03-16T15:45:10;8.50;;;2.50;;
35993;SDS011;22066;54.274;18.578;2023-03-16T15:50:02;8.57;;;2.40;;
35993;SDS011;22066;54.274;18.578;2023-03-16T15:52:29;11.60;;;3.20;;
35993;SDS011;22066;54.274;18.578;2023-03-16T15:54:56;13.27;;;4.13;;
35993;SDS011;22066;54.274;18.578;2023-03-16T15:57:28;7.90;;;3.33;;
35993;SDS011;22066;54.274;18.578;2023-03-16T15:59:55;17.93;;;4.83;;
35993;SDS011;22066;54.274;18.578;2023-03-16T16:02:28;12.07;;;4.30;;
35993;SDS011;22066;54.274;18.578;2023-03-16T16:04:55;40.37;;;14.60;;
35993;SDS011;22066;54.274;18.578;2023-03-16T16:07:21;18.43;;;6.70;;
35993;SDS011;22066;54.274;18.578;2023-03-16T16:09:47;14.10;;;5.10;;
35993;SDS011;22066;54.274;18.578;2023-03-16T16:12:14;15.70;;;6.20;;